sensor_id;sensor_type;location;lat;lon;timestamp;P1;durP1;ratioP1;P2;durP2;ratioP2
7255;SDS011;3669;49.200;9.242;2023-08-01T00:02:08;4.13;;;3.38;;
7255;SDS011;3669;49.200;9.242;2023-08-01T00:04:35;5.68;;;3.95;;
7255;SDS011;3669;49.200;9.242;2023-08-01T00:07:02;5.88;;;3.70;;
7255;SDS011;3669;49.200;9.242;2023-08-01T00:09:30;3.90;;;3.28;;
7255;SDS011;3669;49.200;9.242;2023-08-01T00:11:57;5.78;;;4.20;;
7255;SDS011;3669;49.200;9.242;2023-08-01T00:14:24;4.65;;;3.60;;
7255;SDS011;3669;49.200;9.242;2023-08-01T00:16:51;8.57;;;4.03;;
7255;SDS011;3669;49.200;9.242;2023-08-01T00:19:18;4.63;;;3.30;;
7255;SDS011;3669;49.200;9.242;2023-08-01T00:21:45;4.45;;;4.03;;
7255;SDS011;3669;49.200;9.242;2023-08-01T00:24:12;4.32;;;3.75;;
7255;SDS011;3669;49.200;9.242;2023-08-01T00:26:39;5.47;;;4.07;;
7255;SDS011;3669;49.200;9.242;2023-08-01T00:29:07;10.38;;;9.63;;
7255;SDS011;3669;49.200;9.242;2023-08-01T00:31:34;17.27;;;16.15;;
7255;SDS011;3669;49.200;9.242;2023-08-01T00:34:01;32.72;;;30.85;;
7255;SDS011;3669;49.200;9.242;2023-08-01T00:36:28;24.75;;;23.02;;
7255;SDS011;3669;49.200;9.242;2023-08-01T00:38:55;29.17;;;27.63;;
7255;SDS011;3669;49.200;9.242;2023-08-01T00:41:22;15.55;;;14.50;;
7255;SDS011;3669;49.200;9.242;2023-08-01T00:43:49;9.20;;;8.05;;
7255;SDS011;3669;49.200;9.242;2023-08-01T00:46:15;5.13;;;4.20;;
7255;SDS011;3669;49.200;9.242;2023-08-01T00:48:43;4.22;;;3.83;;
7255;SDS011;3669;49.200;9.242;2023-08-01T00:51:10;5.38;;;4.00;;
7255;SDS011;3669;49.200;9.242;2023-08-01T00:53:38;5.95;;;4.10;;
7255;SDS011;3669;49.200;9.242;2023-08-01T00:56:06;4.28;;;3.85;;
7255;SDS011;3669;49.200;9.242;2023-08-01T00:58:33;4.13;;;3.60;;
7255;SDS011;3669;49.200;9.242;2023-08-01T01:01:00;4.80;;;3.35;;
7255;SDS011;3669;49.200;9.242;2023-08-01T01:03:29;4.60;;;3.80;;
7255;SDS011;3669;49.200;9.242;2023-08-01T01:06:00;6.25;;;3.75;;
7255;SDS011;3669;49.200;9.242;2023-08-01T01:08:28;5.57;;;4.20;;
7255;SDS011;3669;49.200;9.242;2023-08-01T01:10:56;5.78;;;3.78;;
7255;SDS011;3669;49.200;9.242;2023-08-01T01:13:23;4.95;;;3.67;;
7255;SDS011;3669;49.200;9.242;2023-08-01T01:15:50;5.32;;;3.83;;
7255;SDS011;3669;49.200;9.242;2023-08-01T01:18:17;4.55;;;4.15;;
7255;SDS011;3669;49.200;9.242;2023-08-01T01:20:44;5.07;;;3.60;;
7255;SDS011;3669;49.200;9.242;2023-08-01T01:23:11;5.07;;;4.07;;
7255;SDS011;3669;49.200;9.242;2023-08-01T01:25:39;5.47;;;3.80;;
7255;SDS011;3669;49.200;9.242;2023-08-01T01:28:06;4.22;;;3.75;;
7255;SDS011;3669;49.200;9.242;2023-08-01T01:30:34;4.53;;;3.63;;
7255;SDS011;3669;49.200;9.242;2023-08-01T01:33:01;5.30;;;3.78;;
7255;SDS011;3669;49.200;9.242;2023-08-01T01:35:29;4.55;;;3.53;;
7255;SDS011;3669;49.200;9.242;2023-08-01T01:37:56;5.07;;;3.85;;
7255;SDS011;3669;49.200;9.242;2023-08-01T01:40:24;4.53;;;3.80;;
7255;SDS011;3669;49.200;9.242;2023-08-01T01:42:51;5.10;;;4.13;;
7255;SDS011;3669;49.200;9.242;2023-08-01T01:45:18;6.13;;;4.03;;
7255;SDS011;3669;49.200;9.242;2023-08-01T01:47:45;6.20;;;4.10;;
7255;SDS011;3669;49.200;9.242;2023-08-01T01:50:12;6.25;;;3.97;;
7255;SDS011;3669;49.200;9.242;2023-08-01T01:52:40;5.90;;;3.90;;
7255;SDS011;3669;49.200;9.242;2023-08-01T01:55:07;6.72;;;4.75;;
7255;SDS011;3669;49.200;9.242;2023-08-01T01:57:34;5.05;;;4.03;;
7255;SDS011;3669;49.200;9.242;2023-08-01T02:00:03;4.88;;;4.00;;
7255;SDS011;3669;49.200;9.242;2023-08-01T02:02:31;4.78;;;4.03;;
7255;SDS011;3669;49.200;9.242;2023-08-01T02:04:58;6.53;;;4.22;;
7255;SDS011;3669;49.200;9.242;2023-08-01T02:07:25;6.72;;;4.53;;
7255;SDS011;3669;49.200;9.242;2023-08-01T02:09:52;6.32;;;4.05;;
7255;SDS011;3669;49.200;9.242;2023-08-01T02:12:19;4.78;;;4.10;;
7255;SDS011;3669;49.200;9.242;2023-08-01T02:14:46;5.32;;;4.05;;
7255;SDS011;3669;49.200;9.242;2023-08-01T02:17:13;4.50;;;3.80;;
7255;SDS011;3669;49.200;9.242;2023-08-01T02:19:40;4.65;;;3.50;;
7255;SDS011;3669;49.200;9.242;2023-08-01T02:22:07;13.43;;;12.55;;
7255;SDS011;3669;49.200;9.242;2023-08-01T02:24:34;11.75;;;10.95;;
7255;SDS011;3669;49.200;9.242;2023-08-01T02:27:01;23.02;;;21.58;;
7255;SDS011;3669;49.200;9.242;2023-08-01T02:29:28;25.30;;;23.80;;
7255;SDS011;3669;49.200;9.242;2023-08-01T02:31:55;29.40;;;27.63;;
7255;SDS011;3669;49.200;9.242;2023-08-01T02:34:22;20.58;;;19.25;;
7255;SDS011;3669;49.200;9.242;2023-08-01T02:36:49;14.50;;;13.50;;
7255;SDS011;3669;49.200;9.242;2023-08-01T02:39:16;5.15;;;4.25;;
7255;SDS011;3669;49.200;9.242;2023-08-01T02:41:43;6.35;;;3.90;;
7255;SDS011;3669;49.200;9.242;2023-08-01T02:44:10;4.43;;;4.03;;
7255;SDS011;3669;49.200;9.242;2023-08-01T02:46:37;5.20;;;4.13;;
7255;SDS011;3669;49.200;9.242;2023-08-01T02:49:04;4.40;;;3.90;;
7255;SDS011;3669;49.200;9.242;2023-08-01T02:51:32;5.03;;;4.05;;
7255;SDS011;3669;49.200;9.242;2023-08-01T02:53:59;4.43;;;4.03;;
7255;SDS011;3669;49.200;9.242;2023-08-01T02:56:26;5.10;;;4.45;;
7255;SDS011;3669;49.200;9.242;2023-08-01T02:58:53;4.95;;;4.22;;
7255;SDS011;3669;49.200;9.242;2023-08-01T03:01:21;4.63;;;4.20;;
7255;SDS011;3669;49.200;9.242;2023-08-01T03:03:48;6.60;;;4.80;;
7255;SDS011;3669;49.200;9.242;2023-08-01T03:06:16;6.30;;;4.30;;
7255;SDS011;3669;49.200;9.242;2023-08-01T03:08:44;6.22;;;4.32;;
7255;SDS011;3669;49.200;9.242;2023-08-01T03:11:11;5.28;;;4.32;;
7255;SDS011;3669;49.200;9.242;2023-08-01T03:13:38;5.20;;;3.65;;
7255;SDS011;3669;49.200;9.242;2023-08-01T03:16:05;4.95;;;4.10;;
7255;SDS011;3669;49.200;9.242;2023-08-01T03:18:32;4.65;;;3.90;;
7255;SDS011;3669;49.200;9.242;2023-08-01T03:20:59;4.93;;;4.20;;
7255;SDS011;3669;49.200;9.242;2023-08-01T03:23:26;4.43;;;4.00;;
7255;SDS011;3669;49.200;9.242;2023-08-01T03:25:53;5.28;;;4.03;;
7255;SDS011;3669;49.200;9.242;2023-08-01T03:28:21;5.93;;;4.35;;
7255;SDS011;3669;49.200;9.242;2023-08-01T03:30:48;5.43;;;4.50;;
7255;SDS011;3669;49.200;9.242;2023-08-01T03:33:16;4.10;;;3.72;;
7255;SDS011;3669;49.200;9.242;2023-08-01T03:35:43;5.57;;;3.97;;
7255;SDS011;3669;49.200;9.242;2023-08-01T03:38:10;5.22;;;3.97;;
7255;SDS011;3669;49.200;9.242;2023-08-01T03:40:37;8.45;;;6.80;;
7255;SDS011;3669;49.200;9.242;2023-08-01T03:43:04;5.97;;;4.45;;
7255;SDS011;3669;49.200;9.242;2023-08-01T03:45:32;5.20;;;3.90;;
7255;SDS011;3669;49.200;9.242;2023-08-01T03:48:00;4.63;;;3.95;;
7255;SDS011;3669;49.200;9.242;2023-08-01T03:50:27;6.55;;;4.28;;
7255;SDS011;3669;49.200;9.242;2023-08-01T03:52:54;6.18;;;4.70;;
7255;SDS011;3669;49.200;9.242;2023-08-01T03:55:21;6.20;;;4.72;;
7255;SDS011;3669;49.200;9.242;2023-08-01T03:57:48;6.80;;;4.10;;
7255;SDS011;3669;49.200;9.242;2023-08-01T04:00:16;5.70;;;4.50;;
7255;SDS011;3669;49.200;9.242;2023-08-01T04:02:44;5.00;;;4.15;;
7255;SDS011;3669;49.200;9.242;2023-08-01T04:05:11;6.00;;;4.68;;
7255;SDS011;3669;49.200;9.242;2023-08-01T04:07:38;5.18;;;3.83;;
7255;SDS011;3669;49.200;9.242;2023-08-01T04:10:05;4.55;;;4.15;;
7255;SDS011;3669;49.200;9.242;2023-08-01T04:12:32;5.90;;;4.47;;
7255;SDS011;3669;49.200;9.242;2023-08-01T04:15:00;5.38;;;4.40;;
7255;SDS011;3669;49.200;9.242;2023-08-01T04:17:27;5.35;;;4.35;;
7255;SDS011;3669;49.200;9.242;2023-08-01T04:19:55;6.07;;;4.13;;
7255;SDS011;3669;49.200;9.242;2023-08-01T04:22:22;5.05;;;4.47;;
7255;SDS011;3669;49.200;9.242;2023-08-01T04:24:49;7.30;;;5.15;;
7255;SDS011;3669;49.200;9.242;2023-08-01T04:27:16;14.63;;;13.73;;
7255;SDS011;3669;49.200;9.242;2023-08-01T04:29:43;22.52;;;21.17;;
7255;SDS011;3669;49.200;9.242;2023-08-01T04:32:10;19.73;;;18.55;;
7255;SDS011;3669;49.200;9.242;2023-08-01T04:34:39;29.70;;;28.02;;
7255;SDS011;3669;49.200;9.242;2023-08-01T04:37:07;28.17;;;26.23;;
7255;SDS011;3669;49.200;9.242;2023-08-01T04:39:36;26.75;;;25.02;;
7255;SDS011;3669;49.200;9.242;2023-08-01T04:42:03;23.52;;;22.08;;
7255;SDS011;3669;49.200;9.242;2023-08-01T04:44:30;16.23;;;14.90;;
7255;SDS011;3669;49.200;9.242;2023-08-01T04:46:57;7.93;;;6.03;;
7255;SDS011;3669;49.200;9.242;2023-08-01T04:49:24;5.05;;;4.50;;
7255;SDS011;3669;49.200;9.242;2023-08-01T04:51:51;5.13;;;4.60;;
7255;SDS011;3669;49.200;9.242;2023-08-01T04:54:19;5.35;;;4.85;;
7255;SDS011;3669;49.200;9.242;2023-08-01T04:56:46;5.13;;;4.18;;
7255;SDS011;3669;49.200;9.242;2023-08-01T04:59:13;4.72;;;4.22;;
7255;SDS011;3669;49.200;9.242;2023-08-01T05:01:40;6.03;;;4.28;;
7255;SDS011;3669;49.200;9.242;2023-08-01T05:04:07;5.72;;;4.47;;
7255;SDS011;3669;49.200;9.242;2023-08-01T05:06:34;5.05;;;4.45;;
7255;SDS011;3669;49.200;9.242;2023-08-01T05:09:01;5.47;;;4.45;;
7255;SDS011;3669;49.200;9.242;2023-08-01T05:11:29;4.80;;;4.28;;
7255;SDS011;3669;49.200;9.242;2023-08-01T05:13:56;5.38;;;4.53;;
7255;SDS011;3669;49.200;9.242;2023-08-01T05:16:23;7.18;;;4.65;;
7255;SDS011;3669;49.200;9.242;2023-08-01T05:18:50;4.78;;;4.13;;
7255;SDS011;3669;49.200;9.242;2023-08-01T05:21:18;5.72;;;4.47;;
7255;SDS011;3669;49.200;9.242;2023-08-01T05:23:45;5.90;;;4.07;;
7255;SDS011;3669;49.200;9.242;2023-08-01T05:26:12;5.05;;;4.22;;
7255;SDS011;3669;49.200;9.242;2023-08-01T05:28:39;5.57;;;4.45;;
7255;SDS011;3669;49.200;9.242;2023-08-01T05:31:06;4.22;;;3.83;;
7255;SDS011;3669;49.200;9.242;2023-08-01T05:33:33;7.22;;;4.65;;
7255;SDS011;3669;49.200;9.242;2023-08-01T05:36:01;5.03;;;4.18;;
7255;SDS011;3669;49.200;9.242;2023-08-01T05:38:28;5.63;;;4.30;;
7255;SDS011;3669;49.200;9.242;2023-08-01T05:40:55;12.75;;;11.80;;
7255;SDS011;3669;49.200;9.242;2023-08-01T05:43:22;6.13;;;4.07;;
7255;SDS011;3669;49.200;9.242;2023-08-01T05:45:49;5.97;;;4.78;;
7255;SDS011;3669;49.200;9.242;2023-08-01T05:48:16;6.22;;;4.68;;
7255;SDS011;3669;49.200;9.242;2023-08-01T05:50:43;4.78;;;4.35;;
7255;SDS011;3669;49.200;9.242;2023-08-01T05:53:10;5.57;;;4.75;;
7255;SDS011;3669;49.200;9.242;2023-08-01T05:55:37;4.82;;;4.32;;
7255;SDS011;3669;49.200;9.242;2023-08-01T05:58:04;5.00;;;4.50;;
7255;SDS011;3669;49.200;9.242;2023-08-01T06:00:31;6.45;;;4.40;;
7255;SDS011;3669;49.200;9.242;2023-08-01T06:02:58;6.18;;;4.38;;
7255;SDS011;3669;49.200;9.242;2023-08-01T06:05:27;6.22;;;4.70;;
7255;SDS011;3669;49.200;9.242;2023-08-01T06:07:54;5.50;;;4.68;;
7255;SDS011;3669;49.200;9.242;2023-08-01T06:10:21;6.13;;;4.65;;
7255;SDS011;3669;49.200;9.242;2023-08-01T06:12:49;6.18;;;4.65;;
7255;SDS011;3669;49.200;9.242;2023-08-01T06:15:16;5.60;;;4.53;;
7255;SDS011;3669;49.200;9.242;2023-08-01T06:17:43;7.20;;;4.80;;
7255;SDS011;3669;49.200;9.242;2023-08-01T06:20:10;7.78;;;5.13;;
7255;SDS011;3669;49.200;9.242;2023-08-01T06:22:38;7.13;;;4.70;;
7255;SDS011;3669;49.200;9.242;2023-08-01T06:25:05;6.60;;;4.57;;
7255;SDS011;3669;49.200;9.242;2023-08-01T06:27:32;7.28;;;4.63;;
7255;SDS011;3669;49.200;9.242;2023-08-01T06:29:59;5.30;;;4.57;;
7255;SDS011;3669;49.200;9.242;2023-08-01T06:32:26;6.00;;;4.80;;
7255;SDS011;3669;49.200;9.242;2023-08-01T06:34:53;6.68;;;4.68;;
7255;SDS011;3669;49.200;9.242;2023-08-01T06:37:20;8.70;;;7.82;;
7255;SDS011;3669;49.200;9.242;2023-08-01T06:39:46;18.73;;;17.25;;
7255;SDS011;3669;49.200;9.242;2023-08-01T06:42:13;31.85;;;29.88;;
7255;SDS011;3669;49.200;9.242;2023-08-01T06:44:41;25.48;;;24.00;;
7255;SDS011;3669;49.200;9.242;2023-08-01T06:47:08;23.00;;;21.48;;
7255;SDS011;3669;49.200;9.242;2023-08-01T06:49:35;22.65;;;21.02;;
7255;SDS011;3669;49.200;9.242;2023-08-01T06:52:02;12.80;;;11.93;;
7255;SDS011;3669;49.200;9.242;2023-08-01T06:54:31;7.85;;;6.57;;
7255;SDS011;3669;49.200;9.242;2023-08-01T06:56:58;7.68;;;5.30;;
7255;SDS011;3669;49.200;9.242;2023-08-01T06:59:26;7.20;;;4.70;;
7255;SDS011;3669;49.200;9.242;2023-08-01T07:01:53;12.32;;;6.10;;
7255;SDS011;3669;49.200;9.242;2023-08-01T07:04:20;11.38;;;5.20;;
7255;SDS011;3669;49.200;9.242;2023-08-01T07:06:47;6.82;;;5.43;;
7255;SDS011;3669;49.200;9.242;2023-08-01T07:09:14;7.22;;;5.40;;
7255;SDS011;3669;49.200;9.242;2023-08-01T07:11:41;7.85;;;5.25;;
7255;SDS011;3669;49.200;9.242;2023-08-01T07:14:09;10.57;;;5.25;;
7255;SDS011;3669;49.200;9.242;2023-08-01T07:16:36;8.05;;;5.47;;
7255;SDS011;3669;49.200;9.242;2023-08-01T07:19:03;9.20;;;5.25;;
7255;SDS011;3669;49.200;9.242;2023-08-01T07:21:31;6.25;;;4.78;;
7255;SDS011;3669;49.200;9.242;2023-08-01T07:23:58;6.57;;;4.50;;
7255;SDS011;3669;49.200;9.242;2023-08-01T07:26:26;7.55;;;4.88;;
7255;SDS011;3669;49.200;9.242;2023-08-01T07:28:54;7.10;;;5.03;;
7255;SDS011;3669;49.200;9.242;2023-08-01T07:31:21;5.75;;;5.13;;
7255;SDS011;3669;49.200;9.242;2023-08-01T07:33:48;7.18;;;4.80;;
7255;SDS011;3669;49.200;9.242;2023-08-01T07:36:15;7.47;;;4.90;;
7255;SDS011;3669;49.200;9.242;2023-08-01T07:38:42;6.57;;;4.90;;
7255;SDS011;3669;49.200;9.242;2023-08-01T07:41:10;8.30;;;4.10;;
7255;SDS011;3669;49.200;9.242;2023-08-01T07:43:37;7.07;;;4.40;;
7255;SDS011;3669;49.200;9.242;2023-08-01T07:46:04;5.05;;;4.30;;
7255;SDS011;3669;49.200;9.242;2023-08-01T07:48:31;5.43;;;4.20;;
7255;SDS011;3669;49.200;9.242;2023-08-01T07:50:59;7.00;;;3.92;;
7255;SDS011;3669;49.200;9.242;2023-08-01T07:53:26;6.03;;;4.13;;
7255;SDS011;3669;49.200;9.242;2023-08-01T07:55:54;5.75;;;4.05;;
7255;SDS011;3669;49.200;9.242;2023-08-01T07:58:21;4.78;;;4.18;;
7255;SDS011;3669;49.200;9.242;2023-08-01T08:00:48;4.85;;;3.95;;
7255;SDS011;3669;49.200;9.242;2023-08-01T08:03:15;5.55;;;4.80;;
7255;SDS011;3669;49.200;9.242;2023-08-01T08:05:42;6.75;;;4.53;;
7255;SDS011;3669;49.200;9.242;2023-08-01T08:08:09;7.65;;;4.85;;
7255;SDS011;3669;49.200;9.242;2023-08-01T08:10:36;5.00;;;4.50;;
7255;SDS011;3669;49.200;9.242;2023-08-01T08:13:03;6.97;;;4.68;;
7255;SDS011;3669;49.200;9.242;2023-08-01T08:15:30;4.63;;;4.15;;
7255;SDS011;3669;49.200;9.242;2023-08-01T08:18:00;6.55;;;4.43;;
7255;SDS011;3669;49.200;9.242;2023-08-01T08:20:30;4.53;;;4.03;;
7255;SDS011;3669;49.200;9.242;2023-08-01T08:22:58;5.60;;;5.00;;
7255;SDS011;3669;49.200;9.242;2023-08-01T08:25:25;5.03;;;4.25;;
7255;SDS011;3669;49.200;9.242;2023-08-01T08:27:52;6.13;;;4.85;;
7255;SDS011;3669;49.200;9.242;2023-08-01T08:30:19;5.45;;;4.95;;
7255;SDS011;3669;49.200;9.242;2023-08-01T08:32:46;5.28;;;4.50;;
7255;SDS011;3669;49.200;9.242;2023-08-01T08:35:13;4.68;;;4.25;;
7255;SDS011;3669;49.200;9.242;2023-08-01T08:37:40;5.65;;;5.10;;
7255;SDS011;3669;49.200;9.242;2023-08-01T08:40:07;10.43;;;9.55;;
7255;SDS011;3669;49.200;9.242;2023-08-01T08:42:35;38.03;;;35.95;;
7255;SDS011;3669;49.200;9.242;2023-08-01T08:45:02;24.08;;;22.55;;
7255;SDS011;3669;49.200;9.242;2023-08-01T08:47:30;12.35;;;11.43;;
7255;SDS011;3669;49.200;9.242;2023-08-01T08:49:57;5.05;;;4.57;;
7255;SDS011;3669;49.200;9.242;2023-08-01T08:52:25;5.28;;;4.55;;
7255;SDS011;3669;49.200;9.242;2023-08-01T08:54:52;4.55;;;3.88;;
7255;SDS011;3669;49.200;9.242;2023-08-01T08:57:21;5.30;;;4.25;;
7255;SDS011;3669;49.200;9.242;2023-08-01T08:59:48;5.53;;;4.30;;
7255;SDS011;3669;49.200;9.242;2023-08-01T09:02:16;4.53;;;4.13;;
7255;SDS011;3669;49.200;9.242;2023-08-01T09:04:43;6.70;;;4.63;;
7255;SDS011;3669;49.200;9.242;2023-08-01T09:07:10;5.10;;;4.50;;
7255;SDS011;3669;49.200;9.242;2023-08-01T09:09:40;5.88;;;4.60;;
7255;SDS011;3669;49.200;9.242;2023-08-01T09:12:08;3.78;;;3.35;;
7255;SDS011;3669;49.200;9.242;2023-08-01T09:14:36;6.38;;;4.40;;
7255;SDS011;3669;49.200;9.242;2023-08-01T09:17:07;3.45;;;3.15;;
7255;SDS011;3669;49.200;9.242;2023-08-01T09:19:35;2.83;;;2.58;;
7255;SDS011;3669;49.200;9.242;2023-08-01T09:22:09;3.72;;;2.63;;
7255;SDS011;3669;49.200;9.242;2023-08-01T09:24:37;3.13;;;2.50;;
7255;SDS011;3669;49.200;9.242;2023-08-01T09:27:05;2.03;;;1.85;;
7255;SDS011;3669;49.200;9.242;2023-08-01T09:29:34;2.05;;;1.85;;
7255;SDS011;3669;49.200;9.242;2023-08-01T09:32:10;10.52;;;9.95;;
7255;SDS011;3669;49.200;9.242;2023-08-01T09:34:40;2.30;;;2.10;;
7255;SDS011;3669;49.200;9.242;2023-08-01T09:37:08;2.65;;;2.00;;
7255;SDS011;3669;49.200;9.242;2023-08-01T09:39:35;1.95;;;1.80;;
7255;SDS011;3669;49.200;9.242;2023-08-01T09:42:02;1.80;;;1.70;;
7255;SDS011;3669;49.200;9.242;2023-08-01T09:44:30;2.72;;;2.10;;
7255;SDS011;3669;49.200;9.242;2023-08-01T09:47:01;2.13;;;1.92;;
7255;SDS011;3669;49.200;9.242;2023-08-01T09:49:28;2.00;;;1.90;;
7255;SDS011;3669;49.200;9.242;2023-08-01T09:51:56;2.15;;;1.90;;
7255;SDS011;3669;49.200;9.242;2023-08-01T09:54:24;2.08;;;1.85;;
7255;SDS011;3669;49.200;9.242;2023-08-01T09:56:51;2.40;;;2.20;;
7255;SDS011;3669;49.200;9.242;2023-08-01T09:59:23;2.55;;;2.20;;
7255;SDS011;3669;49.200;9.242;2023-08-01T10:01:52;3.00;;;1.95;;
7255;SDS011;3669;49.200;9.242;2023-08-01T10:04:23;19.00;;;18.00;;
7255;SDS011;3669;49.200;9.242;2023-08-01T10:06:54;25.73;;;24.55;;
7255;SDS011;3669;49.200;9.242;2023-08-01T10:09:22;25.85;;;24.55;;
7255;SDS011;3669;49.200;9.242;2023-08-01T10:11:49;30.15;;;28.60;;
7255;SDS011;3669;49.200;9.242;2023-08-01T10:14:20;27.63;;;26.27;;
7255;SDS011;3669;49.200;9.242;2023-08-01T10:16:48;16.95;;;16.15;;
7255;SDS011;3669;49.200;9.242;2023-08-01T10:19:16;15.95;;;15.20;;
7255;SDS011;3669;49.200;9.242;2023-08-01T10:21:44;16.33;;;15.45;;
7255;SDS011;3669;49.200;9.242;2023-08-01T10:24:11;6.13;;;5.78;;
7255;SDS011;3669;49.200;9.242;2023-08-01T10:26:39;2.30;;;2.10;;
7255;SDS011;3669;49.200;9.242;2023-08-01T10:29:07;2.33;;;1.92;;
7255;SDS011;3669;49.200;9.242;2023-08-01T10:31:35;2.20;;;2.00;;
7255;SDS011;3669;49.200;9.242;2023-08-01T10:34:06;2.78;;;1.77;;
7255;SDS011;3669;49.200;9.242;2023-08-01T10:36:34;2.50;;;2.30;;
7255;SDS011;3669;49.200;9.242;2023-08-01T10:39:01;1.73;;;1.63;;
7255;SDS011;3669;49.200;9.242;2023-08-01T10:44:06;2.00;;;1.80;;
7255;SDS011;3669;49.200;9.242;2023-08-01T10:46:50;1.80;;;1.70;;
7255;SDS011;3669;49.200;9.242;2023-08-01T10:49:18;2.65;;;1.70;;
7255;SDS011;3669;49.200;9.242;2023-08-01T10:51:45;1.92;;;1.83;;
7255;SDS011;3669;49.200;9.242;2023-08-01T10:54:22;2.70;;;1.98;;
7255;SDS011;3669;49.200;9.242;2023-08-01T10:56:53;1.60;;;1.50;;
7255;SDS011;3669;49.200;9.242;2023-08-01T10:59:24;1.77;;;1.67;;
7255;SDS011;3669;49.200;9.242;2023-08-01T11:01:52;3.95;;;1.92;;
7255;SDS011;3669;49.200;9.242;2023-08-01T11:04:20;2.33;;;1.70;;
7255;SDS011;3669;49.200;9.242;2023-08-01T11:06:48;1.90;;;1.80;;
7255;SDS011;3669;49.200;9.242;2023-08-01T11:09:19;2.00;;;1.80;;
7255;SDS011;3669;49.200;9.242;2023-08-01T11:11:50;1.80;;;1.70;;
7255;SDS011;3669;49.200;9.242;2023-08-01T11:14:22;2.35;;;2.15;;
7255;SDS011;3669;49.200;9.242;2023-08-01T11:16:49;2.10;;;1.98;;
7255;SDS011;3669;49.200;9.242;2023-08-01T11:19:24;3.35;;;2.00;;
7255;SDS011;3669;49.200;9.242;2023-08-01T11:22:08;5.47;;;3.95;;
7255;SDS011;3669;49.200;9.242;2023-08-01T11:24:55;5.80;;;2.75;;
7255;SDS011;3669;49.200;9.242;2023-08-01T11:27:24;4.68;;;2.13;;
7255;SDS011;3669;49.200;9.242;2023-08-01T11:29:52;3.55;;;2.15;;
7255;SDS011;3669;49.200;9.242;2023-08-01T11:32:20;1.90;;;1.80;;
7255;SDS011;3669;49.200;9.242;2023-08-01T11:34:47;2.47;;;1.80;;
7255;SDS011;3669;49.200;9.242;2023-08-01T11:37:15;2.08;;;1.92;;
7255;SDS011;3669;49.200;9.242;2023-08-01T11:39:42;2.95;;;1.88;;
7255;SDS011;3669;49.200;9.242;2023-08-01T11:42:18;2.38;;;1.70;;
7255;SDS011;3669;49.200;9.242;2023-08-01T11:44:45;2.60;;;2.40;;
7255;SDS011;3669;49.200;9.242;2023-08-01T11:47:13;3.05;;;2.25;;
7255;SDS011;3669;49.200;9.242;2023-08-01T11:49:49;3.50;;;2.30;;
7255;SDS011;3669;49.200;9.242;2023-08-01T11:52:27;3.17;;;2.28;;
7255;SDS011;3669;49.200;9.242;2023-08-01T11:54:57;4.10;;;2.30;;
7255;SDS011;3669;49.200;9.242;2023-08-01T11:57:24;3.17;;;2.60;;
7255;SDS011;3669;49.200;9.242;2023-08-01T11:59:51;2.58;;;2.38;;
7255;SDS011;3669;49.200;9.242;2023-08-01T12:02:23;2.70;;;2.50;;
7255;SDS011;3669;49.200;9.242;2023-08-01T12:04:50;2.28;;;2.13;;
7255;SDS011;3669;49.200;9.242;2023-08-01T12:07:18;2.53;;;2.20;;
7255;SDS011;3669;49.200;9.242;2023-08-01T12:09:54;2.47;;;2.25;;
7255;SDS011;3669;49.200;9.242;2023-08-01T12:12:22;2.45;;;2.22;;
7255;SDS011;3669;49.200;9.242;2023-08-01T12:14:50;2.40;;;2.20;;
7255;SDS011;3669;49.200;9.242;2023-08-01T12:17:18;2.65;;;1.80;;
7255;SDS011;3669;49.200;9.242;2023-08-01T12:19:45;2.13;;;1.75;;
7255;SDS011;3669;49.200;9.242;2023-08-01T12:22:12;10.85;;;10.25;;
7255;SDS011;3669;49.200;9.242;2023-08-01T12:24:43;8.07;;;7.57;;
7255;SDS011;3669;49.200;9.242;2023-08-01T12:27:10;15.93;;;15.20;;
7255;SDS011;3669;49.200;9.242;2023-08-01T12:29:37;14.88;;;14.15;;
7255;SDS011;3669;49.200;9.242;2023-08-01T12:32:04;36.38;;;34.42;;
7255;SDS011;3669;49.200;9.242;2023-08-01T12:34:33;26.00;;;24.63;;
7255;SDS011;3669;49.200;9.242;2023-08-01T12:37:00;20.88;;;19.70;;
7255;SDS011;3669;49.200;9.242;2023-08-01T12:39:27;12.10;;;11.52;;
7255;SDS011;3669;49.200;9.242;2023-08-01T12:41:54;3.15;;;2.45;;
7255;SDS011;3669;49.200;9.242;2023-08-01T12:44:21;2.67;;;2.20;;
7255;SDS011;3669;49.200;9.242;2023-08-01T12:46:49;3.25;;;2.00;;
7255;SDS011;3669;49.200;9.242;2023-08-01T12:49:17;2.17;;;1.80;;
7255;SDS011;3669;49.200;9.242;2023-08-01T12:51:45;1.75;;;1.65;;
7255;SDS011;3669;49.200;9.242;2023-08-01T12:54:12;2.97;;;2.10;;
7255;SDS011;3669;49.200;9.242;2023-08-01T12:56:39;2.30;;;1.80;;
7255;SDS011;3669;49.200;9.242;2023-08-01T12:59:06;2.38;;;2.10;;
7255;SDS011;3669;49.200;9.242;2023-08-01T13:01:34;2.22;;;2.03;;
7255;SDS011;3669;49.200;9.242;2023-08-01T13:04:01;2.67;;;1.80;;
7255;SDS011;3669;49.200;9.242;2023-08-01T13:06:28;2.47;;;1.90;;
7255;SDS011;3669;49.200;9.242;2023-08-01T13:08:55;2.30;;;2.10;;
7255;SDS011;3669;49.200;9.242;2023-08-01T13:11:23;2.85;;;2.00;;
7255;SDS011;3669;49.200;9.242;2023-08-01T13:13:50;2.10;;;1.90;;
7255;SDS011;3669;49.200;9.242;2023-08-01T13:16:17;2.13;;;1.88;;
7255;SDS011;3669;49.200;9.242;2023-08-01T13:18:44;2.65;;;2.05;;
7255;SDS011;3669;49.200;9.242;2023-08-01T13:21:14;2.55;;;2.00;;
7255;SDS011;3669;49.200;9.242;2023-08-01T13:23:41;2.80;;;2.00;;
7255;SDS011;3669;49.200;9.242;2023-08-01T13:26:08;2.22;;;2.03;;
7255;SDS011;3669;49.200;9.242;2023-08-01T13:28:35;2.00;;;1.80;;
7255;SDS011;3669;49.200;9.242;2023-08-01T13:31:03;2.83;;;1.80;;
7255;SDS011;3669;49.200;9.242;2023-08-01T13:33:30;2.67;;;1.90;;
7255;SDS011;3669;49.200;9.242;2023-08-01T13:35:58;2.08;;;1.90;;
7255;SDS011;3669;49.200;9.242;2023-08-01T13:38:25;2.33;;;1.90;;
7255;SDS011;3669;49.200;9.242;2023-08-01T13:41:01;10.38;;;9.85;;
7255;SDS011;3669;49.200;9.242;2023-08-01T13:43:29;2.60;;;2.00;;
7255;SDS011;3669;49.200;9.242;2023-08-01T13:45:56;2.42;;;1.80;;
7255;SDS011;3669;49.200;9.242;2023-08-01T13:48:24;2.40;;;1.85;;
7255;SDS011;3669;49.200;9.242;2023-08-01T13:50:52;2.50;;;2.10;;
7255;SDS011;3669;49.200;9.242;2023-08-01T13:53:19;1.90;;;1.80;;
7255;SDS011;3669;49.200;9.242;2023-08-01T13:55:46;3.03;;;1.90;;
7255;SDS011;3669;49.200;9.242;2023-08-01T13:58:13;4.22;;;1.90;;
7255;SDS011;3669;49.200;9.242;2023-08-01T14:00:41;1.92;;;1.70;;
7255;SDS011;3669;49.200;9.242;2023-08-01T14:03:08;2.92;;;2.13;;
7255;SDS011;3669;49.200;9.242;2023-08-01T14:05:35;2.03;;;1.83;;
7255;SDS011;3669;49.200;9.242;2023-08-01T14:08:02;2.22;;;1.98;;
7255;SDS011;3669;49.200;9.242;2023-08-01T14:10:29;5.70;;;5.30;;
7255;SDS011;3669;49.200;9.242;2023-08-01T14:12:56;14.32;;;13.50;;
7255;SDS011;3669;49.200;9.242;2023-08-01T14:15:24;23.73;;;22.55;;
7255;SDS011;3669;49.200;9.242;2023-08-01T14:17:51;30.73;;;29.25;;
7255;SDS011;3669;49.200;9.242;2023-08-01T14:20:18;20.45;;;19.38;;
7255;SDS011;3669;49.200;9.242;2023-08-01T14:22:45;14.02;;;13.25;;
7255;SDS011;3669;49.200;9.242;2023-08-01T14:25:12;3.20;;;1.95;;
7255;SDS011;3669;49.200;9.242;2023-08-01T14:27:39;1.83;;;1.67;;
7255;SDS011;3669;49.200;9.242;2023-08-01T14:30:10;2.58;;;1.77;;
7255;SDS011;3669;49.200;9.242;2023-08-01T14:32:37;2.53;;;1.80;;
7255;SDS011;3669;49.200;9.242;2023-08-01T14:35:05;3.13;;;2.10;;
7255;SDS011;3669;49.200;9.242;2023-08-01T14:37:32;2.58;;;1.77;;
7255;SDS011;3669;49.200;9.242;2023-08-01T14:40:01;2.78;;;1.80;;
7255;SDS011;3669;49.200;9.242;2023-08-01T14:42:29;2.30;;;1.77;;
7255;SDS011;3669;49.200;9.242;2023-08-01T14:44:56;2.00;;;1.80;;
7255;SDS011;3669;49.200;9.242;2023-08-01T14:47:23;2.58;;;1.60;;
7255;SDS011;3669;49.200;9.242;2023-08-01T14:49:51;2.60;;;1.90;;
7255;SDS011;3669;49.200;9.242;2023-08-01T14:52:19;2.03;;;1.83;;
7255;SDS011;3669;49.200;9.242;2023-08-01T14:54:46;2.00;;;1.80;;
7255;SDS011;3669;49.200;9.242;2023-08-01T14:57:14;2.80;;;1.90;;
7255;SDS011;3669;49.200;9.242;2023-08-01T14:59:41;2.85;;;1.90;;
7255;SDS011;3669;49.200;9.242;2023-08-01T15:02:08;1.98;;;1.77;;
7255;SDS011;3669;49.200;9.242;2023-08-01T15:04:36;2.67;;;1.90;;
7255;SDS011;3669;49.200;9.242;2023-08-01T15:07:03;2.28;;;2.00;;
7255;SDS011;3669;49.200;9.242;2023-08-01T15:09:31;2.13;;;1.75;;
7255;SDS011;3669;49.200;9.242;2023-08-01T15:11:58;3.60;;;1.90;;
7255;SDS011;3669;49.200;9.242;2023-08-01T15:14:26;3.47;;;2.13;;
7255;SDS011;3669;49.200;9.242;2023-08-01T15:16:53;4.10;;;2.00;;
7255;SDS011;3669;49.200;9.242;2023-08-01T15:19:21;3.50;;;1.77;;